Time;durP1;ratioP1;P1;durP2;ratioP2;P2;SDS_P1;SDS_P2;PMS_P1;PMS_P2;Temp;Humidity;BMP_temperature;BMP_pressure;BME280_temperature;BME280_humidity;BME280_pressure;Samples;Min_cycle;Max_cycle;Signal;HPM_P1;HPM_P2
2021/12/04 00:01:57;;;;;;;;;;;;;;;;;;5043804;28;19933;-69
2021/12/04 00:04:28;;;;;;;;;;;;;;;;;;5048973;28;20450;-69
2021/12/04 00:06:55;;;;;;;;;;;;;;;;;;5047069;28;19924;-68
2021/12/04 00:09:22;;;;;;;;;;;;;;;;;;5046700;28;20393;-69
2021/12/04 00:11:54;;;;;;;;;;;;;;;;;;5049703;28;20024;-69
2021/12/04 00:14:21;;;;;;;;;;;;;;;;;;5050948;28;19925;-69
2021/12/04 00:16:48;;;;;;;;;;;;;;;;;;5051510;28;19924;-69
2021/12/04 00:19:15;;;;;;;;;;;;;;;;;;5048789;28;20035;-69
2021/12/04 00:21:42;;;;;;;;;;;;;;;;;;5049553;28;20015;-70
2021/12/04 00:24:09;;;;;;;;;;;;;;;;;;5048331;28;20359;-71
2021/12/04 00:26:36;;;;;;;;;;;;;;;;;;5047753;28;19928;-69
2021/12/04 00:29:03;;;;;;;;;;;;;;;;;;5045463;28;19967;-70
2021/12/04 00:31:30;;;;;;;;;;;;;;;;;;5046195;28;19955;-70
2021/12/04 00:33:58;;;;;;;;;;;;;;;;;;5049310;28;20002;-70
2021/12/04 00:36:34;;;;;;;;;;;;;;;;;;5047947;28;19932;-69
2021/12/04 00:50:08;;;;;;;;;;;;;;;;;;5039530;28;19923;-70
2021/12/04 00:52:35;;;;;;;;;;;;;;;;;;5037875;28;20109;-67
2021/12/04 00:55:02;;;;;;;;;;;;;;;;;;5053622;28;19932;-70
2021/12/04 00:57:29;;;;;;;;;;;;;;;;;;5051764;28;19931;-70
2021/12/04 00:59:56;;;;;;;;;;;;;;;;;;5039291;28;19935;-70
2021/12/04 01:02:23;;;;;;;;;;;;;;;;;;5041984;28;19931;-69
2021/12/04 01:04:50;;;;;;;;;;;;;;;;;;5049016;28;20309;-68
2021/12/04 01:07:17;;;;;;;;;;;;;;;;;;5052319;28;20411;-70
2021/12/04 01:09:44;;;;;;;;;;;;;;;;;;5046217;28;20365;-69
2021/12/04 01:12:11;;;;;;;;;;;;;;;;;;5049932;28;19935;-68
2021/12/04 01:14:38;;;;;;;;;;;;;;;;;;5049125;28;19932;-69
2021/12/04 01:17:05;;;;;;;;;;;;;;;;;;5048091;28;19925;-68
2021/12/04 01:19:32;;;;;;;;;;;;;;;;;;5054900;28;20019;-68
2021/12/04 01:21:59;;;;;;;;;;;;;;;;;;5055932;28;19925;-68
2021/12/04 01:24:26;;;;;;;;;;;;;;;;;;5059650;28;19936;-68
2021/12/04 01:26:52;;;;;;;;;;;;;;;;;;5056031;28;19925;-69
2021/12/04 01:29:19;;;;;;;;;;;;;;;;;;5048157;28;19924;-69
2021/12/04 01:31:46;;;;;;;;;;;;;;;;;;5051741;28;20389;-67
2021/12/04 01:34:13;;;;;;;;;;;;;;;;;;5052379;28;19932;-68
2021/12/04 01:36:40;;;;;;;;;;;;;;;;;;5050796;28;19931;-70
2021/12/04 01:39:07;;;;;;;;;;;;;;;;;;5054692;28;19936;-69
2021/12/04 01:41:34;;;;;;;;;;;;;;;;;;5054519;28;19936;-67
2021/12/04 01:44:01;;;;;;;;;;;;;;;;;;5055448;28;19925;-69
2021/12/04 01:46:28;;;;;;;;;;;;;;;;;;5046346;28;19925;-69
2021/12/04 01:48:55;;;;;;;;;;;;;;;;;;5053205;28;19933;-69
2021/12/04 01:51:22;;;;;;;;;;;;;;;;;;5054250;28;19928;-67
2021/12/04 01:53:49;;;;;;;;;;;;;;;;;;5053146;28;19924;-68
2021/12/04 01:56:16;;;;;;;;;;;;;;;;;;5055105;28;19929;-68
2021/12/04 01:58:43;;;;;;;;;;;;;;;;;;5053528;28;19925;-66
2021/12/04 02:01:10;;;;;;;;;;;;;;;;;;5052868;28;19931;-67
2021/12/04 02:03:37;;;;;;;;;;;;;;;;;;5051263;28;19949;-69
2021/12/04 02:06:03;;;;;;;;;;;;;;;;;;5045524;28;20301;-67
2021/12/04 02:08:30;;;;;;;;;;;;;;;;;;5050043;28;19929;-67
2021/12/04 02:10:57;;;;;;;;;;;;;;;;;;5048454;28;20296;-68
2021/12/04 02:13:24;;;;;;;;;;;;;;;;;;5047380;28;19932;-68
2021/12/04 02:15:51;;;;;;;;;;;;;;;;;;5054087;28;19956;-67
2021/12/04 02:18:18;;;;;;;;;;;;;;;;;;5048982;28;19925;-68
2021/12/04 02:20:45;;;;;;;;;;;;;;;;;;5051603;28;19925;-69
2021/12/04 02:23:12;;;;;;;;;;;;;;;;;;5047852;28;19965;-68
2021/12/04 02:25:39;;;;;;;;;;;;;;;;;;5046208;28;19931;-67
2021/12/04 02:28:06;;;;;;;;;;;;;;;;;;5053055;28;19929;-68
2021/12/04 02:30:34;;;;;;;;;;;;;;;;;;5053931;28;19925;-67
2021/12/04 02:33:02;;;;;;;;;;;;;;;;;;5049533;28;20021;-68
2021/12/04 02:35:29;;;;;;;;;;;;;;;;;;5050702;28;20304;-66
2021/12/04 02:37:56;;;;;;;;;;;;;;;;;;5051523;28;19933;-67
2021/12/04 02:40:23;;;;;;;;;;;;;;;;;;5051230;28;20286;-64
2021/12/04 02:42:50;;;;;;;;;;;;;;;;;;5050614;28;20273;-67
2021/12/04 02:45:17;;;;;;;;;;;;;;;;;;5050996;28;19933;-65
2021/12/04 02:47:44;;;;;;;;;;;;;;;;;;5048338;28;19932;-64
2021/12/04 02:50:11;;;;;;;;;;;;;;;;;;5051411;28;19939;-66
2021/12/04 02:52:38;;;;;;;;;;;;;;;;;;5052116;28;20385;-67
2021/12/04 02:55:05;;;;;;;;;;;;;;;;;;5052557;28;20403;-68
2021/12/04 02:57:34;;;;;;;;;;;;;;;;;;5048556;28;20372;-68
2021/12/04 03:00:01;;;;;;;;;;;;;;;;;;5048519;28;19924;-67
2021/12/04 03:02:28;;;;;;;;;;;;;;;;;;5053043;28;19924;-67
2021/12/04 03:04:55;;;;;;;;;;;;;;;;;;5053361;28;19928;-68
2021/12/04 03:07:22;;;;;;;;;;;;;;;;;;5052477;28;19925;-67
2021/12/04 03:09:49;;;;;;;;;;;;;;;;;;5047133;28;19947;-67
2021/12/04 03:12:16;;;;;;;;;;;;;;;;;;5051619;28;19926;-67
2021/12/04 03:14:43;;;;;;;;;;;;;;;;;;5051169;28;19924;-67
2021/12/04 03:17:10;;;;;;;;;;;;;;;;;;5053380;28;19924;-67
2021/12/04 03:19:38;;;;;;;;;;;;;;;;;;5052668;28;19929;-67
2021/12/04 03:22:05;;;;;;;;;;;;;;;;;;5047145;28;19932;-68
2021/12/04 03:24:35;;;;;;;;;;;;;;;;;;5052637;28;19958;-69
2021/12/04 03:27:02;;;;;;;;;;;;;;;;;;5052999;28;20352;-70
2021/12/04 03:29:30;;;;;;;;;;;;;;;;;;5058125;28;20381;-69
2021/12/04 03:32:25;;;;;;;;;;;;;;;;;;5050878;28;19925;-68
2021/12/04 03:40:37;;;;;;;;;;;;;;;;;;5047187;28;19920;-69
2021/12/04 03:43:04;;;;;;;;;;;;;;;;;;5040784;28;19933;-69
2021/12/04 03:45:33;;;;;;;;;;;;;;;;;;5053188;28;19925;-70
2021/12/04 03:48:06;;;;;;;;;;;;;;;;;;5048373;28;19925;-68
2021/12/04 03:50:33;;;;;;;;;;;;;;;;;;5048278;28;20008;-68
2021/12/04 03:53:00;;;;;;;;;;;;;;;;;;5047729;28;20444;-70
2021/12/04 03:55:27;;;;;;;;;;;;;;;;;;5052421;28;20292;-69
2021/12/04 03:57:54;;;;;;;;;;;;;;;;;;5049643;28;19929;-69
2021/12/04 04:00:23;;;;;;;;;;;;;;;;;;5046394;28;19925;-69
2021/12/04 04:02:50;;;;;;;;;;;;;;;;;;5044651;28;19925;-68
2021/12/04 04:05:17;;;;;;;;;;;;;;;;;;5052234;28;19929;-68
2021/12/04 04:07:44;;;;;;;;;;;;;;;;;;5049173;28;19925;-68
2021/12/04 04:10:11;;;;;;;;;;;;;;;;;;5050837;28;19925;-69
2021/12/04 04:12:38;;;;;;;;;;;;;;;;;;5052378;28;19940;-68
2021/12/04 04:15:05;;;;;;;;;;;;;;;;;;5046074;28;19929;-68
2021/12/04 04:17:41;;;;;;;;;;;;;;;;;;5051622;28;19925;-69
2021/12/04 04:20:08;;;;;;;;;;;;;;;;;;5052875;28;19925;-68
2021/12/04 04:22:35;;;;;;;;;;;;;;;;;;5051845;28;19932;-68
2021/12/04 04:25:02;;;;;;;;;;;;;;;;;;5044961;28;20320;-68
2021/12/04 04:27:29;;;;;;;;;;;;;;;;;;5055826;28;19925;-68
2021/12/04 04:29:56;;;;;;;;;;;;;;;;;;5051031;28;20399;-68
2021/12/04 04:32:24;;;;;;;;;;;;;;;;;;5051819;28;20277;-67
2021/12/04 04:34:53;;;;;;;;;;;;;;;;;;5041985;28;19948;-68
2021/12/04 04:37:25;;;;;;;;;;;;;;;;;;5049254;28;20019;-67
2021/12/04 04:40:22;;;;;;;;;;;;;;;;;;5052114;28;19925;-68
2021/12/04 04:59:37;;;;;;;;;;;;;;;;;;5052123;28;20100;-66
2021/12/04 05:02:21;;;;;;;;;;;;;;;;;;5051315;28;19925;-67
2021/12/04 05:10:37;;;;;;;;;;;;;;;;;;5041012;28;19921;-67
2021/12/04 05:13:06;;;;;;;;;;;;;;;;;;5047201;28;20011;-67
2021/12/04 05:15:40;;;;;;;;;;;;;;;;;;5048144;28;19984;-67
2021/12/04 05:18:13;;;;;;;;;;;;;;;;;;5039492;28;20463;-67
2021/12/04 05:20:40;;;;;;;;;;;;;;;;;;5039634;28;20024;-66
2021/12/04 05:23:07;;;;;;;;;;;;;;;;;;5049957;28;21302;-67
2021/12/04 05:25:36;;;;;;;;;;;;;;;;;;5049271;28;19924;-66
2021/12/04 05:28:03;;;;;;;;;;;;;;;;;;5052771;28;19925;-67
2021/12/04 05:30:29;;;;;;;;;;;;;;;;;;5048824;28;20309;-66
2021/12/04 05:32:56;;;;;;;;;;;;;;;;;;5046882;28;19929;-68
2021/12/04 05:35:23;;;;;;;;;;;;;;;;;;5040231;28;19924;-67
2021/12/04 05:37:50;;;;;;;;;;;;;;;;;;5045233;28;19931;-68
2021/12/04 05:40:17;;;;;;;;;;;;;;;;;;5042710;28;19932;-66
2021/12/04 05:42:44;;;;;;;;;;;;;;;;;;5046805;28;19932;-65
2021/12/04 05:45:17;;;;;;;;;;;;;;;;;;5047316;28;20043;-65
2021/12/04 05:47:47;;;;;;;;;;;;;;;;;;5050350;28;19925;-66
2021/12/04 05:50:25;;;;;;;;;;;;;;;;;;5048230;28;20137;-66
2021/12/04 05:53:03;;;;;;;;;;;;;;;;;;5049826;28;19980;-67
2021/12/04 05:55:39;;;;;;;;;;;;;;;;;;5048320;28;19939;-67
2021/12/04 05:58:06;;;;;;;;;;;;;;;;;;5050476;28;19994;-66
2021/12/04 06:00:33;;;;;;;;;;;;;;;;;;5050735;28;20292;-66
2021/12/04 06:03:00;;;;;;;;;;;;;;;;;;5046932;28;19983;-66
2021/12/04 06:05:29;;;;;;;;;;;;;;;;;;5044186;28;20385;-66
2021/12/04 06:07:56;;;;;;;;;;;;;;;;;;5039150;28;20328;-69
2021/12/04 06:10:23;;;;;;;;;;;;;;;;;;5045656;28;20377;-67
2021/12/04 06:12:50;;;;;;;;;;;;;;;;;;5052292;28;20228;-65
2021/12/04 06:15:17;;;;;;;;;;;;;;;;;;5052740;28;19931;-65
2021/12/04 06:17:44;;;;;;;;;;;;;;;;;;5051843;28;19931;-65
2021/12/04 06:22:56;;;;;;;;;;;;;;;;;;5048051;28;20006;-67
2021/12/04 06:25:26;;;;;;;;;;;;;;;;;;5052205;28;20304;-68
2021/12/04 06:27:53;;;;;;;;;;;;;;;;;;5051116;28;19928;-66
2021/12/04 06:30:20;;;;;;;;;;;;;;;;;;5050264;28;19928;-67
2021/12/04 06:32:48;;;;;;;;;;;;;;;;;;5046825;28;19929;-67
2021/12/04 06:35:15;;;;;;;;;;;;;;;;;;5048098;28;19933;-66
2021/12/04 06:37:42;;;;;;;;;;;;;;;;;;5048306;28;19932;-67
2021/12/04 06:40:11;;;;;;;;;;;;;;;;;;5048221;28;19925;-70
2021/12/04 06:42:38;;;;;;;;;;;;;;;;;;5050536;28;19925;-67
2021/12/04 06:45:05;;;;;;;;;;;;;;;;;;5048320;28;20027;-67
2021/12/04 06:47:33;;;;;;;;;;;;;;;;;;5052155;28;19931;-66
2021/12/04 06:50:04;;;;;;;;;;;;;;;;;;5051357;28;19964;-66
2021/12/04 06:52:32;;;;;;;;;;;;;;;;;;5051696;28;19925;-66
2021/12/04 06:55:00;;;;;;;;;;;;;;;;;;5051570;28;19947;-66
2021/12/04 06:57:29;;;;;;;;;;;;;;;;;;5052894;28;20023;-66
2021/12/04 06:59:56;;;;;;;;;;;;;;;;;;5040973;28;19932;-66
2021/12/04 07:02:23;;;;;;;;;;;;;;;;;;5047167;28;19932;-65
2021/12/04 07:04:50;;;;;;;;;;;;;;;;;;5051474;28;19925;-67
2021/12/04 07:07:17;;;;;;;;;;;;;;;;;;5051058;28;19928;-66
2021/12/04 07:09:44;;;;;;;;;;;;;;;;;;5049917;28;19925;-67
2021/12/04 07:12:11;;;;;;;;;;;;;;;;;;5051446;28;19928;-66
2021/12/04 07:14:38;;;;;;;;;;;;;;;;;;5049735;28;19931;-66
2021/12/04 07:17:05;;;;;;;;;;;;;;;;;;5052887;28;19932;-66
2021/12/04 07:19:32;;;;;;;;;;;;;;;;;;5052151;28;19951;-67
2021/12/04 07:21:59;;;;;;;;;;;;;;;;;;5048849;28;19944;-67
2021/12/04 07:24:26;;;;;;;;;;;;;;;;;;5050112;28;20424;-68
2021/12/04 07:26:53;;;;;;;;;;;;;;;;;;5050900;28;20364;-69
2021/12/04 07:29:20;;;;;;;;;;;;;;;;;;5050176;28;19925;-66
2021/12/04 07:31:47;;;;;;;;;;;;;;;;;;5046004;28;19929;-67
2021/12/04 07:34:14;;;;;;;;;;;;;;;;;;5047129;28;19925;-66
2021/12/04 07:36:41;;;;;;;;;;;;;;;;;;5050106;28;19925;-66
2021/12/04 07:39:08;;;;;;;;;;;;;;;;;;5051077;28;19925;-66
2021/12/04 07:41:42;;;;;;;;;;;;;;;;;;5045710;28;20373;-65
2021/12/04 07:44:09;;;;;;;;;;;;;;;;;;5045267;28;20340;-66
2021/12/04 07:46:36;;;;;;;;;;;;;;;;;;5046611;28;19925;-67
2021/12/04 07:49:03;;;;;;;;;;;;;;;;;;5047772;28;19924;-66
2021/12/04 07:51:30;;;;;;;;;;;;;;;;;;5050195;28;19968;-67
2021/12/04 07:53:57;;;;;;;;;;;;;;;;;;5041640;28;20050;-66
2021/12/04 07:56:24;;;;;;;;;;;;;;;;;;5048405;28;19925;-66
2021/12/04 07:58:51;;;;;;;;;;;;;;;;;;5050338;28;19924;-66
2021/12/04 08:01:18;;;;;;;;;;;;;;;;;;5046731;28;19933;-67
2021/12/04 08:03:45;;;;;;;;;;;;;;;;;;5049566;28;19925;-66
2021/12/04 08:06:12;;;;;;;;;;;;;;;;;;5048452;28;19932;-70
2021/12/04 08:08:39;;;;;;;;;;;;;;;;;;5044258;28;19925;-66
2021/12/04 08:11:06;;;;;;;;;;;;;;;;;;5049644;28;20544;-65
2021/12/04 08:13:33;;;;;;;;;;;;;;;;;;5046363;28;19932;-65
2021/12/04 08:16:00;;;;;;;;;;;;;;;;;;5049167;28;19924;-67
2021/12/04 08:18:27;;;;;;;;;;;;;;;;;;5047195;28;19925;-67
2021/12/04 08:20:53;;;;;;;;;;;;;;;;;;5048953;28;19929;-67
2021/12/04 08:23:21;;;;;;;;;;;;;;;;;;5043285;28;19928;-68
2021/12/04 08:25:48;;;;;;;;;;;;;;;;;;5038883;28;20340;-67
2021/12/04 08:28:14;;;;;;;;;;;;;;;;;;5045829;28;19925;-68
2021/12/04 08:30:41;;;;;;;;;;;;;;;;;;5049917;28;19924;-66
2021/12/04 08:33:08;;;;;;;;;;;;;;;;;;5049094;28;20385;-69
2021/12/04 08:35:39;;;;;;;;;;;;;;;;;;5044140;28;19928;-69
2021/12/04 08:38:06;;;;;;;;;;;;;;;;;;5049396;28;20016;-66
2021/12/04 08:40:33;;;;;;;;;;;;;;;;;;5046275;28;19931;-69
2021/12/04 08:43:00;;;;;;;;;;;;;;;;;;5043366;28;19925;-67
2021/12/04 08:45:27;;;;;;;;;;;;;;;;;;5051039;28;19929;-66
2021/12/04 08:47:54;;;;;;;;;;;;;;;;;;5047598;28;19925;-67
2021/12/04 08:50:21;;;;;;;;;;;;;;;;;;5052452;28;19931;-66
2021/12/04 08:52:48;;;;;;;;;;;;;;;;;;5046265;28;19925;-65
2021/12/04 08:55:15;;;;;;;;;;;;;;;;;;5051179;28;19944;-68
2021/12/04 08:57:42;;;;;;;;;;;;;;;;;;5048496;28;20036;-68
2021/12/04 09:00:09;;;;;;;;;;;;;;;;;;5047989;28;20426;-71
2021/12/04 09:02:36;;;;;;;;;;;;;;;;;;5043562;28;19926;-68
2021/12/04 09:05:03;;;;;;;;;;;;;;;;;;5047726;28;20341;-68
2021/12/04 09:07:30;;;;;;;;;;;;;;;;;;5050677;28;19990;-69
2021/12/04 09:09:57;;;;;;;;;;;;;;;;;;5047311;28;19929;-69
2021/12/04 09:12:24;;;;;;;;;;;;;;;;;;5051110;28;19925;-68
2021/12/04 09:14:51;;;;;;;;;;;;;;;;;;5048678;28;19925;-68
2021/12/04 09:17:18;;;;;;;;;;;;;;;;;;5045752;28;20015;-68
2021/12/04 09:19:45;;;;;;;;;;;;;;;;;;5046016;28;19933;-69
2021/12/04 09:22:16;;;;;;;;;;;;;;;;;;5048479;28;20015;-69
2021/12/04 09:24:45;;;;;;;;;;;;;;;;;;5054176;28;20008;-67
2021/12/04 09:27:19;;;;;;;;;;;;;;;;;;5042259;28;20020;-69
2021/12/04 09:29:52;;;;;;;;;;;;;;;;;;5048281;28;19932;-69
2021/12/04 09:32:46;;;;;;;;;;;;;;;;;;5051179;28;19925;-68
2021/12/04 10:00:22;;;;;;;;;;;;;;;;;;5051987;28;20343;-68
2021/12/04 10:03:09;;;;;;;;;;;;;;;;;;5048136;28;19925;-67
2021/12/04 10:11:28;;;;;;;;;;;;;;;;;;5054120;28;20039;-68
2021/12/04 10:14:12;;;;;;;;;;;;;;;;;;5048227;28;20019;-67
2021/12/04 10:19:34;;;;;;;;;;;;;;;;;;5050777;28;19967;-67
2021/12/04 10:22:06;;;;;;;;;;;;;;;;;;5052497;28;19932;-67
2021/12/04 10:24:51;;;;;;;;;;;;;;;;;;5048535;28;19925;-68
2021/12/04 10:32:55;;;;;;;;;;;;;;;;;;5050392;28;19920;-68
2021/12/04 10:35:22;;;;;;;;;;;;;;;;;;5050724;28;19924;-67
2021/12/04 10:37:49;;;;;;;;;;;;;;;;;;5051915;28;19931;-67
2021/12/04 10:40:16;;;;;;;;;;;;;;;;;;5053887;28;20011;-67
2021/12/04 10:42:44;;;;;;;;;;;;;;;;;;5051285;28;20379;-68
2021/12/04 10:45:11;;;;;;;;;;;;;;;;;;5050066;28;20419;-66
2021/12/04 10:47:38;;;;;;;;;;;;;;;;;;5049593;28;19933;-67
2021/12/04 10:50:12;;;;;;;;;;;;;;;;;;5051629;28;19925;-67
2021/12/04 10:52:48;;;;;;;;;;;;;;;;;;5050883;28;19951;-67
2021/12/04 10:55:18;;;;;;;;;;;;;;;;;;5050989;28;19936;-66
2021/12/04 11:00:42;;;;;;;;;;;;;;;;;;5044411;28;19919;-68
2021/12/04 11:03:18;;;;;;;;;;;;;;;;;;5048052;28;19925;-67
2021/12/04 11:06:08;;;;;;;;;;;;;;;;;;5052345;28;20413;-69
2021/12/04 11:22:41;;;;;;;;;;;;;;;;;;5049258;28;20004;-68
2021/12/04 11:25:36;;;;;;;;;;;;;;;;;;5047090;28;19957;-69
2021/12/04 11:28:21;;;;;;;;;;;;;;;;;;5048342;28;19928;-68
2021/12/04 11:36:38;;;;;;;;;;;;;;;;;;5046377;28;19977;-67
2021/12/04 11:42:01;;;;;;;;;;;;;;;;;;5047729;28;19936;-67
2021/12/04 11:44:32;;;;;;;;;;;;;;;;;;5043331;28;19932;-66
2021/12/04 11:46:59;;;;;;;;;;;;;;;;;;5046316;28;19925;-68
2021/12/04 11:49:26;;;;;;;;;;;;;;;;;;5046021;28;19931;-66
2021/12/04 11:51:57;;;;;;;;;;;;;;;;;;5052623;28;19975;-66
2021/12/04 11:54:24;;;;;;;;;;;;;;;;;;5043093;28;19948;-66
2021/12/04 11:56:51;;;;;;;;;;;;;;;;;;5048584;28;20019;-66
2021/12/04 11:59:18;;;;;;;;;;;;;;;;;;5051669;28;19925;-66
2021/12/04 12:01:45;;;;;;;;;;;;;;;;;;5047810;28;19931;-66
2021/12/04 12:04:11;;;;;;;;;;;;;;;;;;5049417;28;19933;-67
2021/12/04 12:06:39;;;;;;;;;;;;;;;;;;5047491;28;19933;-65
2021/12/04 12:09:06;;;;;;;;;;;;;;;;;;5047426;28;19947;-67
2021/12/04 12:11:33;;;;;;;;;;;;;;;;;;5051839;28;19925;-65
2021/12/04 12:14:00;;;;;;;;;;;;;;;;;;5049034;28;19932;-66
2021/12/04 12:16:28;;;;;;;;;;;;;;;;;;5051452;28;20361;-66
2021/12/04 12:18:56;;;;;;;;;;;;;;;;;;5051453;28;19925;-66
2021/12/04 12:21:26;;;;;;;;;;;;;;;;;;5047925;28;19936;-66
2021/12/04 12:26:50;;;;;;;;;;;;;;;;;;5051514;28;19939;-66
2021/12/04 12:32:18;;;;;;;;;;;;;;;;;;5049198;28;19923;-65
2021/12/04 12:37:29;;;;;;;;;;;;;;;;;;5047724;28;19924;-66
2021/12/04 12:39:56;;;;;;;;;;;;;;;;;;5046879;28;19947;-67
2021/12/04 12:42:23;;;;;;;;;;;;;;;;;;5045965;28;19976;-66
2021/12/04 12:44:50;;;;;;;;;;;;;;;;;;5047546;28;20220;-65
2021/12/04 12:47:17;;;;;;;;;;;;;;;;;;5048601;28;20028;-66
2021/12/04 12:49:44;;;;;;;;;;;;;;;;;;5047485;28;19924;-66
2021/12/04 12:52:11;;;;;;;;;;;;;;;;;;5047545;28;19931;-67
2021/12/04 12:54:38;;;;;;;;;;;;;;;;;;5047748;28;19980;-67
2021/12/04 12:57:06;;;;;;;;;;;;;;;;;;5047453;28;20011;-68
2021/12/04 12:59:43;;;;;;;;;;;;;;;;;;5047613;28;19931;-66
2021/12/04 13:13:09;;;;;;;;;;;;;;;;;;5052577;28;20283;-68
2021/12/04 13:15:36;;;;;;;;;;;;;;;;;;5053428;28;20551;-67
2021/12/04 13:18:03;;;;;;;;;;;;;;;;;;5051381;28;19925;-68
2021/12/04 13:20:30;;;;;;;;;;;;;;;;;;5052868;28;19933;-70
2021/12/04 13:22:57;;;;;;;;;;;;;;;;;;5050068;28;19931;-66
2021/12/04 13:25:24;;;;;;;;;;;;;;;;;;5051312;28;20008;-67
2021/12/04 13:30:16;;;;;;;;;;;;;;;;;;5050206;28;20011;-67
2021/12/04 13:32:43;;;;;;;;;;;;;;;;;;5053191;28;19929;-67
2021/12/04 13:35:10;;;;;;;;;;;;;;;;;;5052044;28;19931;-67
2021/12/04 13:37:37;;;;;;;;;;;;;;;;;;5053577;28;19924;-67
2021/12/04 13:40:06;;;;;;;;;;;;;;;;;;5049447;28;20378;-69
2021/12/04 13:42:33;;;;;;;;;;;;;;;;;;5050697;28;20023;-68
2021/12/04 13:45:00;;;;;;;;;;;;;;;;;;5049772;28;19929;-68
2021/12/04 13:47:27;;;;;;;;;;;;;;;;;;5050718;28;20039;-66
2021/12/04 13:49:56;;;;;;;;;;;;;;;;;;5049731;28;19931;-69
2021/12/04 13:52:23;;;;;;;;;;;;;;;;;;5051277;28;19968;-67
2021/12/04 13:54:50;;;;;;;;;;;;;;;;;;5048122;28;19932;-67
2021/12/04 13:57:17;;;;;;;;;;;;;;;;;;5048861;28;19931;-66
2021/12/04 13:59:44;;;;;;;;;;;;;;;;;;5050473;28;19957;-66
2021/12/04 14:02:11;;;;;;;;;;;;;;;;;;5048657;28;19929;-67
2021/12/04 14:04:38;;;;;;;;;;;;;;;;;;5049511;28;19929;-67
2021/12/04 14:07:05;;;;;;;;;;;;;;;;;;5047092;28;19935;-66
2021/12/04 14:09:32;;;;;;;;;;;;;;;;;;5051504;28;19947;-65
2021/12/04 14:11:59;;;;;;;;;;;;;;;;;;5052487;28;19929;-67
2021/12/04 14:14:26;;;;;;;;;;;;;;;;;;5052702;28;19925;-66
2021/12/04 14:16:53;;;;;;;;;;;;;;;;;;5050460;28;20024;-65
2021/12/04 14:19:20;;;;;;;;;;;;;;;;;;5051385;28;19929;-65
2021/12/04 14:21:47;;;;;;;;;;;;;;;;;;5052002;28;19931;-66
2021/12/04 14:24:14;;;;;;;;;;;;;;;;;;5051832;28;19931;-66
2021/12/04 14:26:41;;;;;;;;;;;;;;;;;;5053470;28;19929;-65
2021/12/04 14:29:08;;;;;;;;;;;;;;;;;;5051363;28;19932;-66
2021/12/04 14:31:35;;;;;;;;;;;;;;;;;;5049361;28;19924;-66
2021/12/04 14:34:02;;;;;;;;;;;;;;;;;;5051876;28;20015;-66
2021/12/04 14:36:29;;;;;;;;;;;;;;;;;;5045642;28;19928;-66
2021/12/04 14:38:58;;;;;;;;;;;;;;;;;;5052048;28;20420;-65
2021/12/04 14:41:25;;;;;;;;;;;;;;;;;;5047544;28;19925;-67
2021/12/04 14:43:52;;;;;;;;;;;;;;;;;;5048070;28;19979;-67
2021/12/04 14:46:23;;;;;;;;;;;;;;;;;;5051231;28;19983;-65
2021/12/04 14:48:50;;;;;;;;;;;;;;;;;;5049387;28;20399;-65
2021/12/04 14:51:17;;;;;;;;;;;;;;;;;;5050344;28;19939;-69
2021/12/04 14:53:44;;;;;;;;;;;;;;;;;;5048625;28;19925;-67
2021/12/04 14:56:11;;;;;;;;;;;;;;;;;;5047570;28;20720;-67
2021/12/04 14:58:38;;;;;;;;;;;;;;;;;;5048244;28;20031;-65
2021/12/04 15:01:06;;;;;;;;;;;;;;;;;;5049855;28;20270;-65
2021/12/04 15:03:33;;;;;;;;;;;;;;;;;;5050047;28;19928;-66
2021/12/04 15:06:02;;;;;;;;;;;;;;;;;;5049297;28;19947;-67
2021/12/04 15:08:29;;;;;;;;;;;;;;;;;;5047264;28;19928;-67
2021/12/04 15:10:56;;;;;;;;;;;;;;;;;;5046022;28;19931;-66
2021/12/04 15:13:23;;;;;;;;;;;;;;;;;;5055131;28;20416;-65
2021/12/04 15:15:50;;;;;;;;;;;;;;;;;;5046668;28;20311;-65
2021/12/04 15:18:20;;;;;;;;;;;;;;;;;;5049248;28;19925;-65
2021/12/04 15:20:49;;;;;;;;;;;;;;;;;;5048279;28;19925;-66
2021/12/04 15:23:16;;;;;;;;;;;;;;;;;;5049354;28;19931;-65
2021/12/04 15:25:45;;;;;;;;;;;;;;;;;;5051086;28;20035;-66
2021/12/04 15:28:12;;;;;;;;;;;;;;;;;;5050358;28;19933;-65
2021/12/04 15:30:39;;;;;;;;;;;;;;;;;;5051733;28;19929;-66
2021/12/04 15:33:06;;;;;;;;;;;;;;;;;;5049392;28;19931;-65
2021/12/04 15:35:37;;;;;;;;;;;;;;;;;;5051587;28;19931;-65
2021/12/04 15:38:06;;;;;;;;;;;;;;;;;;5048779;28;20480;-66
2021/12/04 15:40:37;;;;;;;;;;;;;;;;;;5047372;28;19960;-67
2021/12/04 15:43:13;;;;;;;;;;;;;;;;;;5049601;28;19935;-67
2021/12/04 15:45:49;;;;;;;;;;;;;;;;;;5045811;28;19932;-66
2021/12/04 15:51:17;;;;;;;;;;;;;;;;;;5045002;28;20430;-67
2021/12/04 15:53:44;;;;;;;;;;;;;;;;;;5046882;28;19924;-67
2021/12/04 15:56:11;;;;;;;;;;;;;;;;;;5047772;28;20015;-68
2021/12/04 15:58:38;;;;;;;;;;;;;;;;;;5045823;28;20027;-67
2021/12/04 16:01:05;;;;;;;;;;;;;;;;;;5047867;28;19928;-67
2021/12/04 16:03:33;;;;;;;;;;;;;;;;;;5045709;28;19935;-67
2021/12/04 16:06:00;;;;;;;;;;;;;;;;;;5048767;28;19986;-67
2021/12/04 16:08:27;;;;;;;;;;;;;;;;;;5049778;28;19933;-66
2021/12/04 16:10:54;;;;;;;;;;;;;;;;;;5051446;28;19924;-67
2021/12/04 16:13:22;;;;;;;;;;;;;;;;;;5044018;28;19929;-68
2021/12/04 16:15:49;;;;;;;;;;;;;;;;;;5046767;28;19964;-67
2021/12/04 16:18:17;;;;;;;;;;;;;;;;;;5051873;28;19956;-67
2021/12/04 16:20:45;;;;;;;;;;;;;;;;;;5044956;28;20392;-64
2021/12/04 16:23:14;;;;;;;;;;;;;;;;;;5043445;28;19924;-65
2021/12/04 16:25:41;;;;;;;;;;;;;;;;;;5049018;28;20008;-68
2021/12/04 16:28:15;;;;;;;;;;;;;;;;;;5048558;28;19947;-68
2021/12/04 16:30:54;;;;;;;;;;;;;;;;;;5047813;28;19943;-65
2021/12/04 16:33:37;;;;;;;;;;;;;;;;;;5049642;28;19934;-65
2021/12/04 16:36:08;;;;;;;;;;;;;;;;;;5044529;28;19932;-65
2021/12/04 16:38:35;;;;;;;;;;;;;;;;;;5048245;28;20341;-66
2021/12/04 16:41:05;;;;;;;;;;;;;;;;;;5049083;28;20028;-66
2021/12/04 16:43:33;;;;;;;;;;;;;;;;;;5047324;28;19924;-66
2021/12/04 16:46:01;;;;;;;;;;;;;;;;;;5045724;28;19968;-66
2021/12/04 16:48:33;;;;;;;;;;;;;;;;;;5049644;28;19925;-66
2021/12/04 16:56:37;;;;;;;;;;;;;;;;;;5045792;28;20006;-66
2021/12/04 16:59:04;;;;;;;;;;;;;;;;;;5048191;28;19943;-67
2021/12/04 17:01:31;;;;;;;;;;;;;;;;;;5047337;28;19972;-66
2021/12/04 17:03:58;;;;;;;;;;;;;;;;;;5048008;28;20012;-67
2021/12/04 17:06:25;;;;;;;;;;;;;;;;;;5045585;28;19924;-66
2021/12/04 17:08:52;;;;;;;;;;;;;;;;;;5049637;28;20019;-67
2021/12/04 17:11:19;;;;;;;;;;;;;;;;;;5049531;28;19999;-68
2021/12/04 17:13:46;;;;;;;;;;;;;;;;;;5050220;28;19931;-67
2021/12/04 17:16:14;;;;;;;;;;;;;;;;;;5047925;28;19924;-67
2021/12/04 17:18:48;;;;;;;;;;;;;;;;;;5048965;28;19960;-68
2021/12/04 17:21:15;;;;;;;;;;;;;;;;;;5045333;28;20474;-66
2021/12/04 17:23:42;;;;;;;;;;;;;;;;;;5045201;28;19931;-67
2021/12/04 17:26:09;;;;;;;;;;;;;;;;;;5050176;28;19929;-67
2021/12/04 17:28:42;;;;;;;;;;;;;;;;;;5053929;28;19925;-66
2021/12/04 17:31:09;;;;;;;;;;;;;;;;;;5051501;28;19964;-67
2021/12/04 17:33:36;;;;;;;;;;;;;;;;;;5086983;22;20023;-66
2021/12/04 17:36:03;;;;;;;;;;;;;;;;;;5047652;28;20301;-66
2021/12/04 17:38:30;;;;;;;;;;;;;;;;;;5046449;28;19947;-67
2021/12/04 17:40:57;;;;;;;;;;;;;;;;;;5045589;28;20296;-67
2021/12/04 17:43:24;;;;;;;;;;;;;;;;;;5045588;28;20277;-67
2021/12/04 17:45:51;;;;;;;;;;;;;;;;;;5027889;28;19931;-66
2021/12/04 17:48:18;;;;;;;;;;;;;;;;;;5026391;28;20019;-67
2021/12/04 17:50:45;;;;;;;;;;;;;;;;;;5030181;28;19928;-68
2021/12/04 17:53:12;;;;;;;;;;;;;;;;;;5025020;28;19932;-67
2021/12/04 17:55:39;;;;;;;;;;;;;;;;;;5028484;28;19984;-66
2021/12/04 17:58:06;;;;;;;;;;;;;;;;;;5027763;28;20024;-66
2021/12/04 18:00:33;;;;;;;;;;;;;;;;;;5025985;28;19925;-67
2021/12/04 18:03:00;;;;;;;;;;;;;;;;;;5030007;28;19925;-67
2021/12/04 18:05:27;;;;;;;;;;;;;;;;;;5027573;28;20412;-67
2021/12/04 18:07:54;;;;;;;;;;;;;;;;;;5028340;28;19926;-67
2021/12/04 18:10:21;;;;;;;;;;;;;;;;;;5022223;28;19925;-67
2021/12/04 18:12:48;;;;;;;;;;;;;;;;;;5026885;28;19925;-67
2021/12/04 18:15:15;;;;;;;;;;;;;;;;;;5031812;28;20305;-65
2021/12/04 18:17:42;;;;;;;;;;;;;;;;;;5023507;28;21374;-67
2021/12/04 18:20:09;;;;;;;;;;;;;;;;;;5020026;28;20021;-66
2021/12/04 18:22:36;;;;;;;;;;;;;;;;;;5022772;28;19929;-65
2021/12/04 18:25:03;;;;;;;;;;;;;;;;;;5022834;28;19950;-66
2021/12/04 18:27:34;;;;;;;;;;;;;;;;;;5022803;28;19932;-67
2021/12/04 18:30:01;;;;;;;;;;;;;;;;;;5026951;28;20667;-67
2021/12/04 18:32:28;;;;;;;;;;;;;;;;;;5024864;28;19976;-66
2021/12/04 18:34:55;;;;;;;;;;;;;;;;;;5018833;28;20296;-66
2021/12/04 18:37:22;;;;;;;;;;;;;;;;;;5021281;28;19933;-65
2021/12/04 18:39:49;;;;;;;;;;;;;;;;;;5020197;28;20385;-65
2021/12/04 18:42:16;;;;;;;;;;;;;;;;;;5019990;28;19932;-65
2021/12/04 18:44:43;;;;;;;;;;;;;;;;;;5021584;28;20014;-66
2021/12/04 18:47:10;;;;;;;;;;;;;;;;;;5020777;28;19932;-67
2021/12/04 18:49:37;;;;;;;;;;;;;;;;;;5021775;28;19933;-66
2021/12/04 18:52:04;;;;;;;;;;;;;;;;;;5023727;28;20288;-66
2021/12/04 18:54:31;;;;;;;;;;;;;;;;;;5026426;28;19929;-66
2021/12/04 18:56:59;;;;;;;;;;;;;;;;;;5027247;28;20237;-66
2021/12/04 18:59:26;;;;;;;;;;;;;;;;;;5025736;28;19983;-66
2021/12/04 19:01:58;;;;;;;;;;;;;;;;;;5029374;28;19931;-66
2021/12/04 19:04:25;;;;;;;;;;;;;;;;;;5025359;28;19933;-65
2021/12/04 19:06:52;;;;;;;;;;;;;;;;;;5021463;28;20557;-65
2021/12/04 19:09:19;;;;;;;;;;;;;;;;;;5021671;28;19933;-66
2021/12/04 19:11:47;;;;;;;;;;;;;;;;;;5025484;28;20389;-66